createdAt,value
2018-10-05T00:00:00.289Z,499
2018-10-05T00:01:07.510Z,498
2018-10-05T00:02:14.714Z,498
2018-10-05T00:03:21.936Z,499
2018-10-05T00:04:29.154Z,500
2018-10-05T00:05:36.371Z,500
2018-10-05T00:06:43.581Z,500
2018-10-05T00:07:50.805Z,500
2018-10-05T00:08:57.745Z,500
2018-10-05T00:10:04.709Z,501
2018-10-05T00:11:11.922Z,500
2018-10-05T00:12:19.145Z,499
2018-10-05T00:13:26.372Z,499
2018-10-05T00:14:33.585Z,500
2018-10-05T00:15:40.798Z,499
2018-10-05T00:16:48.014Z,499
2018-10-05T00:17:55.227Z,500
2018-10-05T00:19:02.432Z,499
2018-10-05T00:20:09.650Z,499
2018-10-05T00:21:16.872Z,500
2018-10-05T00:22:24.079Z,498
2018-10-05T00:23:31.287Z,498
2018-10-05T00:24:38.517Z,499
2018-10-05T00:25:45.724Z,500
2018-10-05T00:26:52.930Z,500
2018-10-05T00:28:00.148Z,500
2018-10-05T00:29:07.369Z,501
2018-10-05T00:30:14.576Z,501
2018-10-05T00:31:21.788Z,501
2018-10-05T00:32:29.257Z,501
2018-10-05T00:33:36.666Z,501
2018-10-05T00:34:43.881Z,501
2018-10-05T00:35:51.089Z,500
2018-10-05T00:36:58.029Z,499
2018-10-05T00:38:05.479Z,499
2018-10-05T00:39:12.631Z,499
2018-10-05T00:40:19.855Z,500
2018-10-05T00:41:27.071Z,500
2018-10-05T00:42:34.272Z,499
2018-10-05T00:43:41.493Z,497
2018-10-05T00:44:48.702Z,498
2018-10-05T00:45:55.939Z,498
2018-10-05T00:47:03.151Z,498
2018-10-05T00:48:10.377Z,498
2018-10-05T00:49:17.599Z,497
2018-10-05T00:50:24.826Z,496
2018-10-05T00:51:32.053Z,495
2018-10-05T00:52:38.988Z,494
2018-10-05T00:53:46.208Z,494
2018-10-05T00:54:53.430Z,495
2018-10-05T00:56:00.651Z,495
2018-10-05T00:57:07.860Z,493
2018-10-05T00:58:15.065Z,493
2018-10-05T00:59:22.287Z,492
2018-10-05T01:00:29.501Z,492
2018-10-05T01:01:36.819Z,491
2018-10-05T01:02:44.080Z,490
2018-10-05T01:03:51.302Z,489
2018-10-05T01:04:58.513Z,489
2018-10-05T01:06:05.733Z,488
2018-10-05T01:07:12.948Z,487
2018-10-05T01:08:20.154Z,487
2018-10-05T01:09:27.365Z,487
2018-10-05T01:10:34.581Z,485
2018-10-05T01:11:41.791Z,485
2018-10-05T01:12:49.022Z,482
2018-10-05T01:13:55.952Z,482
2018-10-05T01:15:02.910Z,481
2018-10-05T01:16:10.119Z,481
2018-10-05T01:17:17.324Z,481
2018-10-05T01:18:24.521Z,480
2018-10-05T01:19:31.461Z,479
2018-10-05T01:20:38.682Z,479
2018-10-05T01:21:45.885Z,477
2018-10-05T01:22:53.089Z,477
2018-10-05T01:24:00.315Z,475
2018-10-05T01:25:07.555Z,476
2018-10-05T01:26:14.764Z,475
2018-10-05T01:27:21.975Z,475
2018-10-05T01:28:29.175Z,475
2018-10-05T01:29:36.389Z,473
2018-10-05T01:30:43.615Z,473
2018-10-05T01:31:50.840Z,471
2018-10-05T01:32:58.078Z,471
2018-10-05T01:34:05.296Z,470
2018-10-05T01:35:12.510Z,469
2018-10-05T01:36:19.468Z,468
2018-10-05T01:37:26.674Z,467
2018-10-05T01:38:33.881Z,467
2018-10-05T01:39:41.097Z,467
2018-10-05T01:40:48.307Z,466
2018-10-05T01:41:55.540Z,466
2018-10-05T01:43:02.760Z,466
2018-10-05T01:44:09.715Z,466
2018-10-05T01:45:16.931Z,465
2018-10-05T01:46:24.151Z,465
2018-10-05T01:47:31.100Z,464
2018-10-05T01:48:38.043Z,463
2018-10-05T01:49:44.983Z,465
2018-10-05T01:50:52.185Z,463
2018-10-05T01:51:59.398Z,464
2018-10-05T01:53:06.330Z,463
2018-10-05T01:54:13.540Z,463
2018-10-05T01:55:20.748Z,461
2018-10-05T01:56:27.964Z,462
2018-10-05T01:57:35.193Z,462
2018-10-05T01:58:42.401Z,461
2018-10-05T01:59:49.618Z,462
2018-10-05T02:00:56.606Z,461
2018-10-05T02:02:03.855Z,461
2018-10-05T02:03:10.761Z,461
2018-10-05T02:04:18.026Z,461
2018-10-05T02:05:25.263Z,461
2018-10-05T02:06:32.476Z,461
2018-10-05T02:07:39.688Z,460
2018-10-05T02:08:46.903Z,461
2018-10-05T02:09:54.122Z,460
2018-10-05T02:11:01.338Z,460
2018-10-05T02:12:08.553Z,461
2018-10-05T02:13:15.766Z,460
2018-10-05T02:14:22.693Z,461
2018-10-05T02:15:29.900Z,461
2018-10-05T02:16:37.113Z,460
2018-10-05T02:17:44.325Z,459
2018-10-05T02:18:51.554Z,459
2018-10-05T02:19:58.757Z,458
2018-10-05T02:21:05.694Z,458
2018-10-05T02:22:12.920Z,458
2018-10-05T02:23:20.133Z,458
2018-10-05T02:24:27.338Z,458
2018-10-05T02:25:34.558Z,458
2018-10-05T02:26:41.765Z,458
2018-10-05T02:27:48.975Z,458
2018-10-05T02:28:56.186Z,458
2018-10-05T02:30:03.401Z,457
2018-10-05T02:31:10.681Z,456
2018-10-05T02:32:18.112Z,455
2018-10-05T02:33:25.329Z,454
2018-10-05T02:34:32.538Z,454
2018-10-05T02:35:39.750Z,454
2018-10-05T02:36:46.961Z,454
2018-10-05T02:37:54.192Z,454
2018-10-05T02:39:01.397Z,452
2018-10-05T02:40:08.619Z,452
2018-10-05T02:41:15.836Z,451
2018-10-05T02:42:23.058Z,451
2018-10-05T02:43:30.264Z,451
2018-10-05T02:44:37.483Z,452
2018-10-05T02:45:44.708Z,452
2018-10-05T02:46:51.919Z,451
2018-10-05T02:47:59.138Z,451
2018-10-05T02:49:06.347Z,451
2018-10-05T02:50:13.555Z,451
2018-10-05T02:51:20.777Z,452
2018-10-05T02:52:27.997Z,452
2018-10-05T02:53:35.203Z,452
2018-10-05T02:54:42.423Z,451
2018-10-05T02:55:49.636Z,451
2018-10-05T02:56:56.574Z,450
2018-10-05T02:58:03.800Z,450
2018-10-05T02:59:11.008Z,449
2018-10-05T22:00:06.553Z,449
2018-10-05T22:01:13.502Z,449
2018-10-05T22:02:20.721Z,447
2018-10-05T22:03:27.943Z,446
2018-10-05T22:04:35.182Z,445
2018-10-05T22:05:42.410Z,445
2018-10-05T22:06:49.844Z,444
2018-10-05T22:07:57.068Z,445
2018-10-05T22:09:04.315Z,443
2018-10-05T22:10:11.541Z,443
2018-10-05T22:11:18.769Z,442
2018-10-05T22:12:25.971Z,442
2018-10-05T22:13:33.206Z,441
2018-10-05T22:14:40.420Z,441
2018-10-05T22:15:47.647Z,440
2018-10-05T22:16:54.863Z,440
2018-10-05T22:18:02.074Z,440
2018-10-05T22:19:09.011Z,441
2018-10-05T22:20:16.230Z,440
2018-10-05T22:21:23.436Z,440
2018-10-05T22:22:30.664Z,440
2018-10-05T22:23:37.890Z,440
2018-10-05T22:24:45.125Z,441
2018-10-05T22:25:52.342Z,440
2018-10-05T22:26:59.285Z,440
2018-10-05T22:28:06.497Z,440
2018-10-05T22:29:13.722Z,440
2018-10-05T22:30:20.669Z,440
2018-10-05T22:31:27.596Z,440
2018-10-05T22:32:34.818Z,440
2018-10-05T22:33:42.094Z,440
2018-10-05T22:34:49.018Z,441
2018-10-05T22:35:55.984Z,441
2018-10-05T22:37:02.659Z,441
2018-10-05T22:38:09.600Z,441
2018-10-05T22:39:16.816Z,441
2018-10-05T22:40:24.034Z,441
2018-10-05T22:41:31.251Z,441
2018-10-05T22:42:38.457Z,441
2018-10-05T22:43:45.667Z,441
2018-10-05T22:44:52.884Z,440
2018-10-05T22:46:00.093Z,440
2018-10-05T22:47:07.317Z,439
2018-10-05T22:49:20.505Z,440
2018-10-05T22:50:27.447Z,439
2018-10-05T22:51:34.665Z,439
2018-10-05T22:52:41.884Z,439
2018-10-05T22:53:49.100Z,439
2018-10-05T22:54:56.317Z,439
2018-10-05T22:56:03.530Z,439
2018-10-05T22:57:10.744Z,439
2018-10-05T22:58:17.681Z,439
2018-10-05T22:59:24.950Z,439
2018-10-05T23:00:32.166Z,439
2018-10-05T23:01:39.377Z,439
2018-10-05T23:02:46.329Z,439
2018-10-05T23:03:53.544Z,439
2018-10-05T23:05:00.751Z,439
2018-10-05T23:06:07.969Z,438
2018-10-05T23:07:15.182Z,439
2018-10-05T23:08:22.400Z,438
2018-10-05T23:09:29.329Z,439
2018-10-05T23:10:36.541Z,439
2018-10-05T23:11:43.774Z,439
2018-10-05T23:12:50.725Z,438
2018-10-05T23:13:57.944Z,438
2018-10-05T23:15:05.161Z,438
2018-10-05T23:16:12.399Z,437
2018-10-05T23:17:19.617Z,437
2018-10-05T23:18:26.837Z,437
2018-10-05T23:19:34.048Z,437
2018-10-05T23:20:41.254Z,436
2018-10-05T23:21:48.474Z,436
2018-10-05T23:22:55.414Z,436
2018-10-05T23:24:02.630Z,435
2018-10-05T23:25:09.841Z,436
2018-10-05T23:26:17.072Z,436
2018-10-05T23:27:24.295Z,436
2018-10-05T23:28:31.507Z,436
2018-10-05T23:29:38.463Z,436
2018-10-05T23:30:45.683Z,436
2018-10-05T23:31:52.903Z,435
2018-10-05T23:33:00.122Z,436
2018-10-05T23:34:07.336Z,436
2018-10-05T23:35:14.551Z,436
2018-10-05T23:36:21.766Z,436
2018-10-05T23:37:28.981Z,436
2018-10-05T23:38:36.216Z,436
2018-10-05T23:39:43.429Z,436
2018-10-05T23:40:50.664Z,436
2018-10-05T23:41:57.880Z,435
2018-10-05T23:43:05.110Z,435
2018-10-05T23:44:12.321Z,435
2018-10-05T23:45:19.534Z,435
2018-10-05T23:46:26.464Z,435
2018-10-05T23:47:33.673Z,435
2018-10-05T23:48:40.908Z,435
2018-10-05T23:49:48.134Z,435
2018-10-05T23:50:55.072Z,434
2018-10-05T23:52:02.294Z,435
2018-10-05T23:53:09.216Z,434
2018-10-05T23:54:16.437Z,434
2018-10-05T23:55:23.645Z,434
2018-10-05T23:56:30.864Z,433
2018-10-05T23:57:38.074Z,433
2018-10-05T23:58:45.314Z,434
2018-10-05T23:59:52.247Z,434
